New Cumnock, United Kingdom
Current Conditions -  °F | °C
As of 9:20 PM on Thursday 23 Oct 2014 (Local Time) from EGPK Reporting Station
Broken Clouds Broken Clouds  
Wind Chill: 54°   Ceiling: 4000
Heat Index: 54°   Visibility: 5mi
Dew Point: 50°   Wind: 9mph
Humidity: 88%   Direction: 220°SW
Pressure: 29.77"   Gusts: NA
Location:  55.4°N, 4.18°W
Report Text: EGPK 232020Z 22008KT 8000 SCT015 BKN040 12/10 Q1008
Loading
Personal Weather Stations






























Interactive Weather Map
Tropical Storm Tracking
New forecast layout! Learn more

10-Day Weather Forecast

Advertisements
Track Severe Weather on mobile